Time;durP1;ratioP1;P1;durP2;ratioP2;P2;SDS_P1;SDS_P2;PMS_P1;PMS_P2;Temp;Humidity;BMP_temperature;BMP_pressure;BME280_temperature;BME280_humidity;BME280_pressure;Samples;Min_cycle;Max_cycle;Signal;HPM_P1;HPM_P2
2022/12/31 00:02:04;;;;;;;;;;;;;;;;;;4437971;32;20110;-74
2022/12/31 00:04:29;;;;;;;;;;;;;;;;;;4454229;32;20068;-74
2022/12/31 00:06:54;;;;;;;;;;;;;;;;;;4438954;32;19937;-74
2022/12/31 00:09:19;;;;;;;;;;;;;;;;;;4454225;32;20310;-75
2022/12/31 00:11:44;;;;;;;;;;;;;;;;;;4439698;32;19937;-75
2022/12/31 00:14:10;;;;;;;;;;;;;;;;;;4453698;32;19945;-74
2022/12/31 00:16:38;;;;;;;;;;;;;;;;;;4452554;32;19972;-74
2022/12/31 00:19:03;;;;;;;;;;;;;;;;;;4452544;32;20246;-74
2022/12/31 00:21:28;;;;;;;;;;;;;;;;;;4452182;32;19971;-74
2022/12/31 00:23:53;;;;;;;;;;;;;;;;;;4452164;32;20271;-75
2022/12/31 00:26:19;;;;;;;;;;;;;;;;;;4453868;32;19960;-74
2022/12/31 00:28:44;;;;;;;;;;;;;;;;;;4437857;32;20336;-74
2022/12/31 00:31:10;;;;;;;;;;;;;;;;;;4452059;32;19940;-74
2022/12/31 00:33:35;;;;;;;;;;;;;;;;;;4453396;32;19951;-73
2022/12/31 00:36:00;;;;;;;;;;;;;;;;;;4453722;32;19936;-75
2022/12/31 00:38:25;;;;;;;;;;;;;;;;;;4453172;32;19972;-75
2022/12/31 00:40:50;;;;;;;;;;;;;;;;;;4450345;32;20014;-76
2022/12/31 00:43:15;;;;;;;;;;;;;;;;;;4452186;32;20004;-75
2022/12/31 00:45:40;;;;;;;;;;;;;;;;;;4451304;32;20230;-75
2022/12/31 00:48:05;;;;;;;;;;;;;;;;;;4450145;32;19985;-76
2022/12/31 00:50:30;;;;;;;;;;;;;;;;;;4452726;32;19940;-75
2022/12/31 00:52:55;;;;;;;;;;;;;;;;;;4451927;32;19944;-75
2022/12/31 00:55:20;;;;;;;;;;;;;;;;;;4451685;32;20000;-74
2022/12/31 00:57:46;;;;;;;;;;;;;;;;;;4450990;32;19947;-74
2022/12/31 01:00:11;;;;;;;;;;;;;;;;;;4451075;32;19944;-75
2022/12/31 01:02:36;;;;;;;;;;;;;;;;;;4451504;32;19987;-75
2022/12/31 01:05:01;;;;;;;;;;;;;;;;;;4452180;32;19966;-76
2022/12/31 01:07:26;;;;;;;;;;;;;;;;;;4453253;32;19933;-75
2022/12/31 01:09:52;;;;;;;;;;;;;;;;;;4456722;32;19941;-78
2022/12/31 01:12:17;;;;;;;;;;;;;;;;;;4460958;32;19944;-76
2022/12/31 01:14:42;;;;;;;;;;;;;;;;;;4456781;32;19932;-75
2022/12/31 01:17:08;;;;;;;;;;;;;;;;;;4452015;32;19936;-76
2022/12/31 01:19:33;;;;;;;;;;;;;;;;;;4452469;32;19932;-75
2022/12/31 01:21:58;;;;;;;;;;;;;;;;;;4452172;32;19999;-76
2022/12/31 01:24:23;;;;;;;;;;;;;;;;;;4454106;32;19977;-77
2022/12/31 01:26:50;;;;;;;;;;;;;;;;;;4453508;32;19932;-76
2022/12/31 01:29:15;;;;;;;;;;;;;;;;;;4451767;32;20009;-77
2022/12/31 01:31:40;;;;;;;;;;;;;;;;;;4451768;32;20369;-76
2022/12/31 01:34:06;;;;;;;;;;;;;;;;;;4450616;32;19948;-76
2022/12/31 01:36:31;;;;;;;;;;;;;;;;;;4452807;32;19968;-76
2022/12/31 01:38:56;;;;;;;;;;;;;;;;;;4453669;32;19932;-76
2022/12/31 01:41:21;;;;;;;;;;;;;;;;;;4451850;32;19987;-75
2022/12/31 01:43:46;;;;;;;;;;;;;;;;;;4452150;32;19932;-76
2022/12/31 01:46:11;;;;;;;;;;;;;;;;;;4450625;32;20062;-75
2022/12/31 01:48:36;;;;;;;;;;;;;;;;;;4450867;32;19949;-75
2022/12/31 01:51:02;;;;;;;;;;;;;;;;;;4451698;32;19944;-75
2022/12/31 01:53:27;;;;;;;;;;;;;;;;;;4452297;32;19992;-75
2022/12/31 01:55:52;;;;;;;;;;;;;;;;;;4451802;32;19937;-75
2022/12/31 01:58:17;;;;;;;;;;;;;;;;;;4450023;32;19999;-75
2022/12/31 02:00:42;;;;;;;;;;;;;;;;;;4450256;32;20509;-75
2022/12/31 02:03:07;;;;;;;;;;;;;;;;;;4451406;32;19952;-75
2022/12/31 02:05:32;;;;;;;;;;;;;;;;;;4453590;32;19955;-75
2022/12/31 02:07:57;;;;;;;;;;;;;;;;;;4452300;32;19932;-75
2022/12/31 02:10:23;;;;;;;;;;;;;;;;;;4451820;32;19980;-75
2022/12/31 02:12:48;;;;;;;;;;;;;;;;;;4453112;32;20361;-74
2022/12/31 02:15:13;;;;;;;;;;;;;;;;;;4451144;32;19993;-74
2022/12/31 02:17:38;;;;;;;;;;;;;;;;;;4450967;32;20286;-74
2022/12/31 02:20:03;;;;;;;;;;;;;;;;;;4450953;32;20341;-74
2022/12/31 02:22:28;;;;;;;;;;;;;;;;;;4452147;32;19933;-73
2022/12/31 02:24:53;;;;;;;;;;;;;;;;;;4451984;32;19947;-75
2022/12/31 02:27:18;;;;;;;;;;;;;;;;;;4452793;32;19995;-74
2022/12/31 02:29:43;;;;;;;;;;;;;;;;;;4453324;32;19932;-74
2022/12/31 02:32:09;;;;;;;;;;;;;;;;;;4456787;32;19988;-74
2022/12/31 02:34:34;;;;;;;;;;;;;;;;;;4454205;32;19933;-74
2022/12/31 02:36:59;;;;;;;;;;;;;;;;;;4438954;32;19951;-75
2022/12/31 02:39:24;;;;;;;;;;;;;;;;;;4451999;32;19936;-75
2022/12/31 02:41:49;;;;;;;;;;;;;;;;;;4452653;32;19936;-74
2022/12/31 02:44:14;;;;;;;;;;;;;;;;;;4452918;32;20007;-75
2022/12/31 02:46:39;;;;;;;;;;;;;;;;;;4451198;32;19983;-75
2022/12/31 02:49:04;;;;;;;;;;;;;;;;;;4451666;32;19943;-75
2022/12/31 02:51:29;;;;;;;;;;;;;;;;;;4452676;32;19936;-74
2022/12/31 02:53:55;;;;;;;;;;;;;;;;;;4451355;32;20021;-74
2022/12/31 02:56:20;;;;;;;;;;;;;;;;;;4448398;32;19999;-75
2022/12/31 03:04:31;;;;;;;;;;;;;;;;;;4451596;32;19943;-75
2022/12/31 03:06:56;;;;;;;;;;;;;;;;;;4450753;32;20231;-76
2022/12/31 03:09:21;;;;;;;;;;;;;;;;;;4450963;32;20311;-75
2022/12/31 03:14:30;;;;;;;;;;;;;;;;;;4454653;32;19939;-75
2022/12/31 03:16:55;;;;;;;;;;;;;;;;;;4455034;32;19987;-76
2022/12/31 03:27:32;;;;;;;;;;;;;;;;;;4456128;32;19963;-76
2022/12/31 03:29:58;;;;;;;;;;;;;;;;;;4453950;32;19944;-76
2022/12/31 03:32:23;;;;;;;;;;;;;;;;;;4453658;32;19999;-76
2022/12/31 03:34:48;;;;;;;;;;;;;;;;;;4455237;32;19937;-77
2022/12/31 03:37:13;;;;;;;;;;;;;;;;;;4455727;32;19940;-75
2022/12/31 03:39:38;;;;;;;;;;;;;;;;;;4455882;32;19947;-76
2022/12/31 03:42:03;;;;;;;;;;;;;;;;;;4454227;32;20280;-76
2022/12/31 03:44:28;;;;;;;;;;;;;;;;;;4454295;32;20356;-75
2022/12/31 03:46:53;;;;;;;;;;;;;;;;;;4449625;32;19956;-75
2022/12/31 03:49:18;;;;;;;;;;;;;;;;;;4453950;32;19940;-75
2022/12/31 03:51:44;;;;;;;;;;;;;;;;;;4457582;32;19941;-75
2022/12/31 03:54:09;;;;;;;;;;;;;;;;;;4456231;32;19940;-75
2022/12/31 03:56:34;;;;;;;;;;;;;;;;;;4454856;32;19947;-76
2022/12/31 03:58:59;;;;;;;;;;;;;;;;;;4453535;32;19936;-75
2022/12/31 04:01:24;;;;;;;;;;;;;;;;;;4453375;32;20420;-76
2022/12/31 04:03:50;;;;;;;;;;;;;;;;;;4453512;32;19941;-76
2022/12/31 04:06:15;;;;;;;;;;;;;;;;;;4455622;32;19963;-76
2022/12/31 04:08:40;;;;;;;;;;;;;;;;;;4455367;32;19932;-75
2022/12/31 04:11:05;;;;;;;;;;;;;;;;;;4453501;32;19973;-75
2022/12/31 04:13:30;;;;;;;;;;;;;;;;;;4453430;32;19937;-76
2022/12/31 04:15:55;;;;;;;;;;;;;;;;;;4439644;32;19971;-76
2022/12/31 04:18:20;;;;;;;;;;;;;;;;;;4439594;32;19970;-75
2022/12/31 04:20:45;;;;;;;;;;;;;;;;;;4438974;32;20000;-75
2022/12/31 04:23:11;;;;;;;;;;;;;;;;;;4438424;32;20003;-74
2022/12/31 04:25:36;;;;;;;;;;;;;;;;;;4440343;32;19983;-75
2022/12/31 04:28:01;;;;;;;;;;;;;;;;;;4440119;32;19963;-75
2022/12/31 04:30:26;;;;;;;;;;;;;;;;;;4452542;32;19988;-74
2022/12/31 04:32:51;;;;;;;;;;;;;;;;;;4453027;32;19941;-74
2022/12/31 04:35:16;;;;;;;;;;;;;;;;;;4453595;32;19942;-75
2022/12/31 04:37:41;;;;;;;;;;;;;;;;;;4454685;32;19932;-74
2022/12/31 04:40:06;;;;;;;;;;;;;;;;;;4452990;32;19947;-74
2022/12/31 04:42:31;;;;;;;;;;;;;;;;;;4452636;32;20364;-75
2022/12/31 04:44:56;;;;;;;;;;;;;;;;;;4438389;32;19940;-75
2022/12/31 04:47:22;;;;;;;;;;;;;;;;;;4438613;32;19943;-75
2022/12/31 04:49:47;;;;;;;;;;;;;;;;;;4438746;32;19948;-75
2022/12/31 04:52:12;;;;;;;;;;;;;;;;;;4437697;32;19948;-75
2022/12/31 04:54:37;;;;;;;;;;;;;;;;;;4453159;32;19933;-75
2022/12/31 04:57:02;;;;;;;;;;;;;;;;;;4437948;32;19944;-74
2022/12/31 04:59:27;;;;;;;;;;;;;;;;;;4451837;32;19959;-75
2022/12/31 05:01:52;;;;;;;;;;;;;;;;;;4453299;32;19999;-74
2022/12/31 05:04:17;;;;;;;;;;;;;;;;;;4452913;32;20319;-75
2022/12/31 05:06:42;;;;;;;;;;;;;;;;;;4454133;32;19948;-75
2022/12/31 05:09:08;;;;;;;;;;;;;;;;;;4456123;32;19966;-75
2022/12/31 05:11:34;;;;;;;;;;;;;;;;;;4462636;32;19951;-75
2022/12/31 05:13:59;;;;;;;;;;;;;;;;;;4455655;32;19945;-75
2022/12/31 05:16:24;;;;;;;;;;;;;;;;;;4452881;32;19944;-74
2022/12/31 05:18:49;;;;;;;;;;;;;;;;;;4453333;32;19970;-74
2022/12/31 05:21:14;;;;;;;;;;;;;;;;;;4452389;32;19936;-75
2022/12/31 05:23:40;;;;;;;;;;;;;;;;;;4452880;32;19936;-74
2022/12/31 05:26:05;;;;;;;;;;;;;;;;;;4452882;32;19974;-74
2022/12/31 05:28:31;;;;;;;;;;;;;;;;;;4438468;32;19972;-75
2022/12/31 05:30:56;;;;;;;;;;;;;;;;;;4451639;32;19947;-75
2022/12/31 05:33:21;;;;;;;;;;;;;;;;;;4452090;32;19981;-75
2022/12/31 05:35:47;;;;;;;;;;;;;;;;;;4452470;32;19988;-74
2022/12/31 05:38:12;;;;;;;;;;;;;;;;;;4452090;32;20328;-75
2022/12/31 05:40:37;;;;;;;;;;;;;;;;;;4453443;32;19936;-74
2022/12/31 05:43:02;;;;;;;;;;;;;;;;;;4452078;32;19952;-76
2022/12/31 05:45:27;;;;;;;;;;;;;;;;;;4451049;32;19966;-76
2022/12/31 05:47:52;;;;;;;;;;;;;;;;;;4444858;32;19937;-76
2022/12/31 05:50:17;;;;;;;;;;;;;;;;;;4452343;32;19953;-76
2022/12/31 05:52:42;;;;;;;;;;;;;;;;;;4454137;32;19992;-76
2022/12/31 05:55:07;;;;;;;;;;;;;;;;;;4438983;32;19947;-76
2022/12/31 05:57:32;;;;;;;;;;;;;;;;;;4451057;32;19932;-76
2022/12/31 05:59:58;;;;;;;;;;;;;;;;;;4453278;32;19952;-76
2022/12/31 06:02:23;;;;;;;;;;;;;;;;;;4452168;32;19963;-77
2022/12/31 06:04:48;;;;;;;;;;;;;;;;;;4451188;32;19932;-76
2022/12/31 06:07:13;;;;;;;;;;;;;;;;;;4450693;32;19945;-76
2022/12/31 06:09:38;;;;;;;;;;;;;;;;;;4437543;32;19948;-76
2022/12/31 06:12:03;;;;;;;;;;;;;;;;;;4450962;32;19940;-77
2022/12/31 06:14:28;;;;;;;;;;;;;;;;;;4452847;32;19940;-76
2022/12/31 06:16:53;;;;;;;;;;;;;;;;;;4452011;32;19966;-75
2022/12/31 06:19:18;;;;;;;;;;;;;;;;;;4451676;32;20298;-77
2022/12/31 06:21:43;;;;;;;;;;;;;;;;;;4438716;32;20362;-76
2022/12/31 06:24:08;;;;;;;;;;;;;;;;;;4437351;32;19965;-76
2022/12/31 06:26:34;;;;;;;;;;;;;;;;;;4452714;32;20301;-75
2022/12/31 06:28:59;;;;;;;;;;;;;;;;;;4452009;32;19973;-76
2022/12/31 06:31:24;;;;;;;;;;;;;;;;;;4456762;32;19940;-75
2022/12/31 06:33:49;;;;;;;;;;;;;;;;;;4452588;32;19933;-75
2022/12/31 06:36:14;;;;;;;;;;;;;;;;;;4451327;32;20004;-75
2022/12/31 06:38:39;;;;;;;;;;;;;;;;;;4437574;32;19986;-74
2022/12/31 06:41:04;;;;;;;;;;;;;;;;;;4451160;32;19982;-75
2022/12/31 06:43:29;;;;;;;;;;;;;;;;;;4450457;32;20367;-76
2022/12/31 06:45:54;;;;;;;;;;;;;;;;;;4452214;32;20374;-76
2022/12/31 06:48:20;;;;;;;;;;;;;;;;;;4453331;32;20293;-76
2022/12/31 06:50:45;;;;;;;;;;;;;;;;;;4450072;32;20012;-76
2022/12/31 06:53:10;;;;;;;;;;;;;;;;;;4452891;32;19966;-76
2022/12/31 06:55:35;;;;;;;;;;;;;;;;;;4450913;32;19975;-77
2022/12/31 06:58:00;;;;;;;;;;;;;;;;;;4451443;32;19944;-76
2022/12/31 07:00:25;;;;;;;;;;;;;;;;;;4450127;32;19972;-76
2022/12/31 07:02:50;;;;;;;;;;;;;;;;;;4445056;32;19970;-76
2022/12/31 07:05:15;;;;;;;;;;;;;;;;;;4450212;32;19967;-76
2022/12/31 07:07:40;;;;;;;;;;;;;;;;;;4451166;32;19971;-77
2022/12/31 07:10:06;;;;;;;;;;;;;;;;;;4448894;32;20031;-76
2022/12/31 07:12:31;;;;;;;;;;;;;;;;;;4448930;32;19962;-77
2022/12/31 07:14:56;;;;;;;;;;;;;;;;;;4449605;32;19987;-76
2022/12/31 07:17:21;;;;;;;;;;;;;;;;;;4452108;32;19946;-77
2022/12/31 07:19:46;;;;;;;;;;;;;;;;;;4450644;32;19971;-77
2022/12/31 07:22:11;;;;;;;;;;;;;;;;;;4438021;32;19944;-76
2022/12/31 07:24:36;;;;;;;;;;;;;;;;;;4452527;32;19952;-76
2022/12/31 07:27:01;;;;;;;;;;;;;;;;;;4449976;32;19956;-77
2022/12/31 07:29:26;;;;;;;;;;;;;;;;;;4450750;32;20260;-77
2022/12/31 07:31:51;;;;;;;;;;;;;;;;;;4451059;32;19970;-77
2022/12/31 07:34:17;;;;;;;;;;;;;;;;;;4451001;32;19964;-78
2022/12/31 07:36:42;;;;;;;;;;;;;;;;;;4437946;32;19933;-78
2022/12/31 07:39:07;;;;;;;;;;;;;;;;;;4451199;32;20018;-78
2022/12/31 07:41:32;;;;;;;;;;;;;;;;;;4453160;32;19957;-77
2022/12/31 07:43:57;;;;;;;;;;;;;;;;;;4452092;32;19937;-77
2022/12/31 07:46:22;;;;;;;;;;;;;;;;;;4436838;32;19932;-77
2022/12/31 07:48:47;;;;;;;;;;;;;;;;;;4437891;32;19949;-76
2022/12/31 07:51:12;;;;;;;;;;;;;;;;;;4459214;32;19947;-76
2022/12/31 07:53:37;;;;;;;;;;;;;;;;;;4459559;32;19945;-76
2022/12/31 07:56:02;;;;;;;;;;;;;;;;;;4437606;32;19946;-76
2022/12/31 07:58:28;;;;;;;;;;;;;;;;;;4437425;32;19940;-76
2022/12/31 08:00:53;;;;;;;;;;;;;;;;;;4454791;32;19992;-76
2022/12/31 08:03:18;;;;;;;;;;;;;;;;;;4453733;32;19940;-78
2022/12/31 08:05:43;;;;;;;;;;;;;;;;;;4441540;32;19936;-76
2022/12/31 08:08:08;;;;;;;;;;;;;;;;;;4455848;32;19956;-75
2022/12/31 08:10:33;;;;;;;;;;;;;;;;;;4454756;32;19943;-75
2022/12/31 08:12:58;;;;;;;;;;;;;;;;;;4453636;32;19940;-77
2022/12/31 08:15:23;;;;;;;;;;;;;;;;;;4439166;32;19940;-76
2022/12/31 08:17:48;;;;;;;;;;;;;;;;;;4438986;32;20311;-76
2022/12/31 08:20:14;;;;;;;;;;;;;;;;;;4453378;32;20314;-76
2022/12/31 08:22:39;;;;;;;;;;;;;;;;;;4453342;32;19940;-75
2022/12/31 08:25:04;;;;;;;;;;;;;;;;;;4451167;32;19933;-75
2022/12/31 08:27:29;;;;;;;;;;;;;;;;;;4454847;32;19980;-76
2022/12/31 08:29:54;;;;;;;;;;;;;;;;;;4452323;32;19945;-78
2022/12/31 08:32:19;;;;;;;;;;;;;;;;;;4451662;32;20211;-77
2022/12/31 08:34:44;;;;;;;;;;;;;;;;;;4452276;32;20306;-78
2022/12/31 08:37:09;;;;;;;;;;;;;;;;;;4451259;32;19972;-76
2022/12/31 08:39:34;;;;;;;;;;;;;;;;;;4451624;32;19977;-77
2022/12/31 08:41:59;;;;;;;;;;;;;;;;;;4451990;32;19936;-78
2022/12/31 08:44:25;;;;;;;;;;;;;;;;;;4439281;32;19941;-77
2022/12/31 08:46:50;;;;;;;;;;;;;;;;;;4452295;32;19955;-77
2022/12/31 08:49:15;;;;;;;;;;;;;;;;;;4437715;32;19932;-78
2022/12/31 08:51:40;;;;;;;;;;;;;;;;;;4452095;32;20298;-77
2022/12/31 08:54:05;;;;;;;;;;;;;;;;;;4438646;32;20258;-76
2022/12/31 08:56:30;;;;;;;;;;;;;;;;;;4452197;32;19947;-78
2022/12/31 08:58:55;;;;;;;;;;;;;;;;;;4453759;32;19972;-79
2022/12/31 09:01:23;;;;;;;;;;;;;;;;;;4453315;32;19995;-78
2022/12/31 09:03:48;;;;;;;;;;;;;;;;;;4451936;32;20259;-78
2022/12/31 09:06:13;;;;;;;;;;;;;;;;;;4452565;32;20000;-77
2022/12/31 09:08:38;;;;;;;;;;;;;;;;;;4453287;32;20280;-78
2022/12/31 09:11:03;;;;;;;;;;;;;;;;;;4459569;32;19968;-77
2022/12/31 09:13:28;;;;;;;;;;;;;;;;;;4454850;32;20057;-78
2022/12/31 09:15:53;;;;;;;;;;;;;;;;;;4453083;32;19932;-77
2022/12/31 09:18:18;;;;;;;;;;;;;;;;;;4438450;32;20050;-77
2022/12/31 09:20:43;;;;;;;;;;;;;;;;;;4452229;32;20075;-75
2022/12/31 09:23:09;;;;;;;;;;;;;;;;;;4452834;32;20367;-75
2022/12/31 09:25:35;;;;;;;;;;;;;;;;;;4438360;32;19940;-74
2022/12/31 09:28:00;;;;;;;;;;;;;;;;;;4452297;32;20001;-75
2022/12/31 09:30:25;;;;;;;;;;;;;;;;;;4451970;32;19937;-75
2022/12/31 09:32:50;;;;;;;;;;;;;;;;;;4452000;32;20056;-74
2022/12/31 09:35:15;;;;;;;;;;;;;;;;;;4453252;32;19948;-75
2022/12/31 09:37:40;;;;;;;;;;;;;;;;;;4452397;32;19981;-75
2022/12/31 09:40:05;;;;;;;;;;;;;;;;;;4452793;32;20009;-74
2022/12/31 09:42:30;;;;;;;;;;;;;;;;;;4451392;32;19932;-74
2022/12/31 09:44:56;;;;;;;;;;;;;;;;;;4453163;32;19990;-74
2022/12/31 09:47:21;;;;;;;;;;;;;;;;;;4451374;32;20064;-75
2022/12/31 09:49:46;;;;;;;;;;;;;;;;;;4451298;32;20019;-75
2022/12/31 09:52:11;;;;;;;;;;;;;;;;;;4452781;32;19998;-76
2022/12/31 09:54:36;;;;;;;;;;;;;;;;;;4452498;32;19949;-74
2022/12/31 09:57:01;;;;;;;;;;;;;;;;;;4452057;32;20314;-73
2022/12/31 09:59:26;;;;;;;;;;;;;;;;;;4451755;32;19971;-74
2022/12/31 10:01:51;;;;;;;;;;;;;;;;;;4450979;32;19960;-73
2022/12/31 10:04:17;;;;;;;;;;;;;;;;;;4450962;32;20317;-73
2022/12/31 10:06:42;;;;;;;;;;;;;;;;;;4450605;32;20352;-75
2022/12/31 10:09:07;;;;;;;;;;;;;;;;;;4451705;32;19999;-74
2022/12/31 10:11:32;;;;;;;;;;;;;;;;;;4450950;32;19941;-75
2022/12/31 10:13:57;;;;;;;;;;;;;;;;;;4451573;32;19933;-75
2022/12/31 10:16:22;;;;;;;;;;;;;;;;;;4451324;32;19996;-74
2022/12/31 10:18:47;;;;;;;;;;;;;;;;;;4451146;32;19959;-75
2022/12/31 10:21:12;;;;;;;;;;;;;;;;;;4451680;32;19951;-75
2022/12/31 10:23:37;;;;;;;;;;;;;;;;;;4451224;32;19988;-75
2022/12/31 10:26:02;;;;;;;;;;;;;;;;;;4452155;32;20344;-75
2022/12/31 10:28:27;;;;;;;;;;;;;;;;;;4438489;32;19951;-75
2022/12/31 10:30:53;;;;;;;;;;;;;;;;;;4453531;32;19940;-74
2022/12/31 10:33:18;;;;;;;;;;;;;;;;;;4453053;32;20355;-73
2022/12/31 10:35:43;;;;;;;;;;;;;;;;;;4450265;32;20003;-75
2022/12/31 10:38:08;;;;;;;;;;;;;;;;;;4449311;32;19980;-74
2022/12/31 10:40:33;;;;;;;;;;;;;;;;;;4438833;32;19987;-74
2022/12/31 10:42:58;;;;;;;;;;;;;;;;;;4451212;32;19966;-76
2022/12/31 10:45:23;;;;;;;;;;;;;;;;;;4450768;32;19949;-75
2022/12/31 10:47:48;;;;;;;;;;;;;;;;;;4436764;32;19933;-76
2022/12/31 10:50:14;;;;;;;;;;;;;;;;;;4435788;32;19951;-75
2022/12/31 10:52:39;;;;;;;;;;;;;;;;;;4436619;32;19944;-76
2022/12/31 10:55:04;;;;;;;;;;;;;;;;;;4450352;32;19948;-76
2022/12/31 10:57:29;;;;;;;;;;;;;;;;;;4436703;32;19937;-75
2022/12/31 10:59:54;;;;;;;;;;;;;;;;;;4436741;32;19980;-75
2022/12/31 11:02:19;;;;;;;;;;;;;;;;;;4450112;32;20064;-77
2022/12/31 11:04:44;;;;;;;;;;;;;;;;;;4450335;32;20004;-76
2022/12/31 11:07:09;;;;;;;;;;;;;;;;;;4436433;32;19952;-76
2022/12/31 11:09:35;;;;;;;;;;;;;;;;;;4452129;32;19947;-77
2022/12/31 11:12:00;;;;;;;;;;;;;;;;;;4452996;32;19974;-77
2022/12/31 11:14:25;;;;;;;;;;;;;;;;;;4451834;32;19933;-76
2022/12/31 11:16:50;;;;;;;;;;;;;;;;;;4452477;32;19982;-77
2022/12/31 11:19:15;;;;;;;;;;;;;;;;;;4438171;32;20034;-77
2022/12/31 11:21:40;;;;;;;;;;;;;;;;;;4452215;32;19955;-77
2022/12/31 11:24:05;;;;;;;;;;;;;;;;;;4451776;32;19965;-79
2022/12/31 11:26:30;;;;;;;;;;;;;;;;;;4437167;32;19940;-77
2022/12/31 11:28:55;;;;;;;;;;;;;;;;;;4436372;32;20002;-79
2022/12/31 11:31:21;;;;;;;;;;;;;;;;;;4450906;32;19944;-77
2022/12/31 11:33:46;;;;;;;;;;;;;;;;;;4438571;32;19967;-76
2022/12/31 11:36:11;;;;;;;;;;;;;;;;;;4454514;32;20306;-78
2022/12/31 11:38:36;;;;;;;;;;;;;;;;;;4440107;32;19978;-77
2022/12/31 11:41:01;;;;;;;;;;;;;;;;;;4453868;32;19960;-77
2022/12/31 11:43:26;;;;;;;;;;;;;;;;;;4454421;32;19969;-75
2022/12/31 11:45:52;;;;;;;;;;;;;;;;;;4454310;32;20032;-76
2022/12/31 11:48:17;;;;;;;;;;;;;;;;;;4455398;32;19940;-76
2022/12/31 11:50:42;;;;;;;;;;;;;;;;;;4460186;32;19943;-77
2022/12/31 11:53:08;;;;;;;;;;;;;;;;;;4456929;32;19937;-76
2022/12/31 11:55:34;;;;;;;;;;;;;;;;;;4454548;32;19937;-75
2022/12/31 11:57:59;;;;;;;;;;;;;;;;;;4440046;32;19944;-75
2022/12/31 12:00:24;;;;;;;;;;;;;;;;;;4454206;32;19991;-75
2022/12/31 12:02:49;;;;;;;;;;;;;;;;;;4454133;32;19956;-75
2022/12/31 12:05:14;;;;;;;;;;;;;;;;;;4439370;32;19947;-75
2022/12/31 12:07:40;;;;;;;;;;;;;;;;;;4440881;32;19977;-76
2022/12/31 12:10:05;;;;;;;;;;;;;;;;;;4453301;32;19988;-77
2022/12/31 12:12:30;;;;;;;;;;;;;;;;;;4453127;32;19951;-76
2022/12/31 12:14:55;;;;;;;;;;;;;;;;;;4452826;32;19972;-75
2022/12/31 12:17:20;;;;;;;;;;;;;;;;;;4453885;32;19932;-76
2022/12/31 12:19:45;;;;;;;;;;;;;;;;;;4455961;32;20325;-75
2022/12/31 12:22:10;;;;;;;;;;;;;;;;;;4454170;32;20013;-76
2022/12/31 12:24:36;;;;;;;;;;;;;;;;;;4454176;32;19936;-73
2022/12/31 12:27:01;;;;;;;;;;;;;;;;;;4441269;32;19971;-76
2022/12/31 12:29:26;;;;;;;;;;;;;;;;;;4438671;32;20070;-77
2022/12/31 12:31:51;;;;;;;;;;;;;;;;;;4454012;32;20207;-76
2022/12/31 12:34:16;;;;;;;;;;;;;;;;;;4453212;32;20322;-76
2022/12/31 12:36:41;;;;;;;;;;;;;;;;;;4438147;32;20385;-77
2022/12/31 12:39:07;;;;;;;;;;;;;;;;;;4438031;32;19971;-77
2022/12/31 12:41:32;;;;;;;;;;;;;;;;;;4438652;32;19944;-76
2022/12/31 12:43:57;;;;;;;;;;;;;;;;;;4438078;32;19991;-74
2022/12/31 12:46:22;;;;;;;;;;;;;;;;;;4452396;32;20059;-75
2022/12/31 12:48:48;;;;;;;;;;;;;;;;;;4453176;32;20394;-75
2022/12/31 12:51:13;;;;;;;;;;;;;;;;;;4453589;32;19948;-76
2022/12/31 12:53:38;;;;;;;;;;;;;;;;;;4439495;32;19991;-76
2022/12/31 12:56:03;;;;;;;;;;;;;;;;;;4453772;32;19952;-76
2022/12/31 12:58:28;;;;;;;;;;;;;;;;;;4453923;32;19984;-77
2022/12/31 13:00:53;;;;;;;;;;;;;;;;;;4438278;32;19972;-75
2022/12/31 13:03:18;;;;;;;;;;;;;;;;;;4451435;32;20369;-76
2022/12/31 13:05:44;;;;;;;;;;;;;;;;;;4451879;32;19940;-77
2022/12/31 13:08:09;;;;;;;;;;;;;;;;;;4451647;32;19947;-76
2022/12/31 13:10:34;;;;;;;;;;;;;;;;;;4446058;32;19945;-75
2022/12/31 13:12:59;;;;;;;;;;;;;;;;;;4454273;32;19932;-77
2022/12/31 13:15:24;;;;;;;;;;;;;;;;;;4451825;32;19961;-77
2022/12/31 13:17:49;;;;;;;;;;;;;;;;;;4452403;32;19952;-76
2022/12/31 13:20:14;;;;;;;;;;;;;;;;;;4450090;32;19944;-76
2022/12/31 13:22:39;;;;;;;;;;;;;;;;;;4452496;32;19984;-75
2022/12/31 13:25:04;;;;;;;;;;;;;;;;;;4450045;32;19975;-75
2022/12/31 13:27:30;;;;;;;;;;;;;;;;;;4451320;32;19938;-74
2022/12/31 13:29:55;;;;;;;;;;;;;;;;;;4451415;32;19940;-75
2022/12/31 13:32:20;;;;;;;;;;;;;;;;;;4453745;32;19948;-75
2022/12/31 13:34:45;;;;;;;;;;;;;;;;;;4452151;32;19932;-76
2022/12/31 13:37:10;;;;;;;;;;;;;;;;;;4449706;32;20370;-76
2022/12/31 13:39:35;;;;;;;;;;;;;;;;;;4449345;32;19998;-77
2022/12/31 13:42:00;;;;;;;;;;;;;;;;;;4449825;32;19967;-77
2022/12/31 13:44:26;;;;;;;;;;;;;;;;;;4451435;32;19987;-78
2022/12/31 13:46:51;;;;;;;;;;;;;;;;;;4450153;32;19966;-78
2022/12/31 13:49:16;;;;;;;;;;;;;;;;;;4437928;32;20280;-77
2022/12/31 13:51:41;;;;;;;;;;;;;;;;;;4438135;32;19941;-77
2022/12/31 13:54:06;;;;;;;;;;;;;;;;;;4452287;32;19975;-76
2022/12/31 13:56:31;;;;;;;;;;;;;;;;;;4452125;32;19940;-77
2022/12/31 13:58:56;;;;;;;;;;;;;;;;;;4436952;32;20358;-77
2022/12/31 14:01:21;;;;;;;;;;;;;;;;;;4451364;32;19980;-78
2022/12/31 14:03:46;;;;;;;;;;;;;;;;;;4452129;32;19936;-77
2022/12/31 14:06:12;;;;;;;;;;;;;;;;;;4451723;32;19932;-76
2022/12/31 14:08:37;;;;;;;;;;;;;;;;;;4451753;32;19980;-76
2022/12/31 14:11:02;;;;;;;;;;;;;;;;;;4450593;32;19968;-76
2022/12/31 14:13:27;;;;;;;;;;;;;;;;;;4450032;32;19970;-77
2022/12/31 14:15:52;;;;;;;;;;;;;;;;;;4452287;32;19965;-76
2022/12/31 14:18:17;;;;;;;;;;;;;;;;;;4450433;32;20248;-76
2022/12/31 14:20:42;;;;;;;;;;;;;;;;;;4451429;32;19936;-77
2022/12/31 14:23:08;;;;;;;;;;;;;;;;;;4452888;32;19936;-77
2022/12/31 14:25:33;;;;;;;;;;;;;;;;;;4452415;32;19937;-76
2022/12/31 14:27:58;;;;;;;;;;;;;;;;;;4452675;32;19936;-76
2022/12/31 14:30:23;;;;;;;;;;;;;;;;;;4456971;32;20319;-77
2022/12/31 14:32:48;;;;;;;;;;;;;;;;;;4453399;32;19944;-76
2022/12/31 14:35:13;;;;;;;;;;;;;;;;;;4450974;32;20218;-76
2022/12/31 14:37:38;;;;;;;;;;;;;;;;;;4450501;32;19936;-75
2022/12/31 14:40:04;;;;;;;;;;;;;;;;;;4447207;32;19987;-76
2022/12/31 14:42:29;;;;;;;;;;;;;;;;;;4452258;32;20282;-76
2022/12/31 14:44:54;;;;;;;;;;;;;;;;;;4450229;32;19991;-75
2022/12/31 14:47:19;;;;;;;;;;;;;;;;;;4450837;32;20286;-75
2022/12/31 14:49:44;;;;;;;;;;;;;;;;;;4451586;32;19941;-75
2022/12/31 14:52:09;;;;;;;;;;;;;;;;;;4437435;32;20306;-74
2022/12/31 14:54:34;;;;;;;;;;;;;;;;;;4452608;32;19940;-74
2022/12/31 14:56:59;;;;;;;;;;;;;;;;;;4437168;32;19937;-74
2022/12/31 14:59:25;;;;;;;;;;;;;;;;;;4440140;32;19972;-74
2022/12/31 15:01:50;;;;;;;;;;;;;;;;;;4451779;32;20006;-75
2022/12/31 15:04:15;;;;;;;;;;;;;;;;;;4437253;32;19941;-74
2022/12/31 15:06:40;;;;;;;;;;;;;;;;;;4452184;32;19963;-73
2022/12/31 15:09:05;;;;;;;;;;;;;;;;;;4454003;32;19940;-74
2022/12/31 15:11:30;;;;;;;;;;;;;;;;;;4455357;32;19939;-74
2022/12/31 15:13:55;;;;;;;;;;;;;;;;;;4456127;32;19932;-74
2022/12/31 15:16:21;;;;;;;;;;;;;;;;;;4454887;32;19984;-74
2022/12/31 15:18:46;;;;;;;;;;;;;;;;;;4454362;32;19987;-75
2022/12/31 15:21:11;;;;;;;;;;;;;;;;;;4454466;32;19974;-74
2022/12/31 15:23:36;;;;;;;;;;;;;;;;;;4454441;32;19968;-74
2022/12/31 15:26:01;;;;;;;;;;;;;;;;;;4454371;32;19932;-73
2022/12/31 15:28:26;;;;;;;;;;;;;;;;;;4455413;32;19978;-73
2022/12/31 15:30:51;;;;;;;;;;;;;;;;;;4454286;32;19945;-74
2022/12/31 15:33:16;;;;;;;;;;;;;;;;;;4452517;32;20376;-73
2022/12/31 15:35:41;;;;;;;;;;;;;;;;;;4454083;32;19937;-73
2022/12/31 15:38:07;;;;;;;;;;;;;;;;;;4454111;32;20025;-73
2022/12/31 15:40:32;;;;;;;;;;;;;;;;;;4454251;32;19955;-73
2022/12/31 15:42:57;;;;;;;;;;;;;;;;;;4454272;32;19932;-74
2022/12/31 15:45:22;;;;;;;;;;;;;;;;;;4454004;32;20294;-74
2022/12/31 15:47:47;;;;;;;;;;;;;;;;;;4454247;32;19956;-74
2022/12/31 15:50:12;;;;;;;;;;;;;;;;;;4462693;32;19989;-74
2022/12/31 15:52:37;;;;;;;;;;;;;;;;;;4457986;32;19936;-74
2022/12/31 15:55:02;;;;;;;;;;;;;;;;;;4456108;32;19940;-72
2022/12/31 15:57:27;;;;;;;;;;;;;;;;;;4453261;32;20344;-74
2022/12/31 15:59:52;;;;;;;;;;;;;;;;;;4452518;32;20322;-72
2022/12/31 16:02:18;;;;;;;;;;;;;;;;;;4453354;32;19936;-73
2022/12/31 16:04:43;;;;;;;;;;;;;;;;;;4452585;32;19980;-73
2022/12/31 16:07:08;;;;;;;;;;;;;;;;;;4453157;32;19947;-72
2022/12/31 16:09:33;;;;;;;;;;;;;;;;;;4453907;32;19966;-74
2022/12/31 16:11:58;;;;;;;;;;;;;;;;;;4455183;32;20268;-74
2022/12/31 16:14:23;;;;;;;;;;;;;;;;;;4453072;32;20250;-74
2022/12/31 16:16:49;;;;;;;;;;;;;;;;;;4453491;32;19952;-74
2022/12/31 16:19:14;;;;;;;;;;;;;;;;;;4452552;32;19981;-74
2022/12/31 16:21:39;;;;;;;;;;;;;;;;;;4453254;32;19950;-73
2022/12/31 16:24:04;;;;;;;;;;;;;;;;;;4453039;32;19981;-73
2022/12/31 16:26:29;;;;;;;;;;;;;;;;;;4455217;32;19993;-73
2022/12/31 16:28:54;;;;;;;;;;;;;;;;;;4453271;32;20320;-74
2022/12/31 16:31:19;;;;;;;;;;;;;;;;;;4452592;32;19944;-73
2022/12/31 16:33:44;;;;;;;;;;;;;;;;;;4452987;32;19947;-73
2022/12/31 16:36:09;;;;;;;;;;;;;;;;;;4452975;32;19937;-74
2022/12/31 16:38:35;;;;;;;;;;;;;;;;;;4452531;32;19965;-75
2022/12/31 16:41:00;;;;;;;;;;;;;;;;;;4454144;32;20223;-73
2022/12/31 16:43:25;;;;;;;;;;;;;;;;;;4438721;32;19936;-75
2022/12/31 16:45:50;;;;;;;;;;;;;;;;;;4452797;32;19979;-74
2022/12/31 16:48:15;;;;;;;;;;;;;;;;;;4452268;32;19986;-73